Time;durP1;ratioP1;P1;durP2;ratioP2;P2;SDS_P1;SDS_P2;PMS_P1;PMS_P2;Temp;Humidity;BMP_temperature;BMP_pressure;BME280_temperature;BME280_humidity;BME280_pressure;Samples;Min_cycle;Max_cycle;Signal;HPM_P1;HPM_P2
2022/04/03 00:00:26;;;;;;;23.60;6.70;;;;;;;-1.15;100.00;98179.70;2241865;79;20973;-60
2022/04/03 00:03:30;;;;;;;23.92;6.65;;;;;;;-1.19;100.00;98177.20;2216002;79;21488;-60
2022/04/03 00:06:31;;;;;;;23.30;6.70;;;;;;;-1.24;100.00;98177.33;2236089;79;20993;-60
2022/04/03 00:09:33;;;;;;;23.33;7.07;;;;;;;-1.25;100.00;98175.62;2235593;79;21480;-60
2022/04/03 00:12:34;;;;;;;27.30;7.35;;;;;;;-1.28;100.00;98180.42;2239800;79;20992;-61
2022/04/03 00:15:41;;;;;;;24.05;6.70;;;;;;;-1.24;100.00;98180.73;2240656;79;21046;-60
2022/04/03 00:18:39;;;;;;;23.45;6.75;;;;;;;-1.20;100.00;98183.26;2215867;79;21488;-60
2022/04/03 00:21:40;;;;;;;22.02;6.67;;;;;;;-1.26;100.00;98179.10;2241293;79;20997;-59
2022/04/03 00:24:43;;;;;;;22.93;6.75;;;;;;;-1.31;100.00;98184.33;2244967;79;20988;-60
2022/04/03 00:27:45;;;;;;;22.30;5.65;;;;;;;-1.40;100.00;98190.53;2241982;79;21000;-60
2022/04/03 00:30:46;;;;;;;26.10;6.17;;;;;;;-1.34;100.00;98187.44;2237959;79;21059;-60
2022/04/03 00:33:48;;;;;;;24.90;6.87;;;;;;;-1.41;100.00;98194.02;2242786;79;21501;-60
2022/04/03 00:36:49;;;;;;;30.40;7.90;;;;;;;-1.37;100.00;98188.34;2238382;79;21032;-59
2022/04/03 00:39:51;;;;;;;25.20;5.87;;;;;;;-1.41;100.00;98188.00;2243907;79;21486;-60
2022/04/03 00:42:52;;;;;;;23.70;7.03;;;;;;;-1.34;100.00;98193.86;2237055;79;21326;-60
2022/04/03 00:45:56;;;;;;;26.02;6.53;;;;;;;-1.29;100.00;98190.76;2231905;79;21008;-60
2022/04/03 00:48:59;;;;;;;26.17;6.45;;;;;;;-1.32;100.00;98191.67;2205731;79;20992;-60
2022/04/03 00:52:01;;;;;;;23.38;8.03;;;;;;;-1.32;100.00;98194.66;2205427;79;21064;-60
2022/04/03 00:55:02;;;;;;;25.12;6.75;;;;;;;-1.39;100.00;98193.98;2236851;79;21054;-60
2022/04/03 00:58:04;;;;;;;25.35;6.30;;;;;;;-1.44;100.00;98188.94;2238623;79;21031;-60
2022/04/03 01:01:05;;;;;;;23.12;5.87;;;;;;;-1.47;100.00;98192.01;2244714;78;21468;-60
2022/04/03 01:04:07;;;;;;;21.42;6.30;;;;;;;-1.51;100.00;98192.95;2242120;79;21065;-60
2022/04/03 01:07:09;;;;;;;23.73;6.20;;;;;;;-1.58;100.00;98194.39;2236522;79;21516;-61
2022/04/03 01:10:10;;;;;;;20.17;6.10;;;;;;;-1.58;100.00;98192.23;2242113;79;20992;-60
2022/04/03 01:13:12;;;;;;;22.42;6.37;;;;;;;-1.66;100.00;98192.86;2234011;79;21479;-60
2022/04/03 01:16:13;;;;;;;20.45;6.05;;;;;;;-1.71;100.00;98192.10;2238400;79;20988;-59
2022/04/03 01:19:15;;;;;;;20.25;5.97;;;;;;;-1.73;100.00;98196.45;2237566;79;20992;-60
2022/04/03 01:22:16;;;;;;;23.62;6.45;;;;;;;-1.76;100.00;98201.20;2241999;78;21036;-60
2022/04/03 01:25:18;;;;;;;23.15;6.78;;;;;;;-1.87;100.00;98202.70;2242398;79;21036;-59
2022/04/03 01:28:19;;;;;;;22.73;6.42;;;;;;;-1.93;100.00;98207.98;2240381;79;20977;-60
2022/04/03 01:31:20;;;;;;;25.35;5.97;;;;;;;-2.12;100.00;98205.78;2236206;79;20981;-59
2022/04/03 01:34:22;;;;;;;21.45;5.58;;;;;;;-2.16;100.00;98209.28;2246814;79;21020;-59
2022/04/03 01:37:23;;;;;;;28.52;6.72;;;;;;;-2.15;100.00;98209.70;2239194;79;21017;-60
2022/04/03 01:40:25;;;;;;;23.73;6.08;;;;;;;-2.19;100.00;98212.36;2231073;79;21421;-60
2022/04/03 01:43:26;;;;;;;22.67;6.22;;;;;;;-2.19;100.00;98211.08;2239357;79;21146;-60
2022/04/03 01:46:28;;;;;;;28.47;6.70;;;;;;;-2.23;100.00;98211.56;2235112;79;21040;-60
2022/04/03 01:49:30;;;;;;;21.25;5.83;;;;;;;-2.23;100.00;98211.56;2233159;79;21368;-59
2022/04/03 01:52:31;;;;;;;27.23;6.83;;;;;;;-2.26;100.00;98215.48;2241762;79;21162;-60
2022/04/03 01:55:33;;;;;;;20.62;5.92;;;;;;;-2.29;100.00;98212.97;2240017;79;21343;-60
2022/04/03 01:58:35;;;;;;;23.32;6.30;;;;;;;-2.38;100.00;98210.14;2242167;79;21011;-60
2022/04/03 02:01:36;;;;;;;23.02;6.35;;;;;;;-2.37;100.00;98213.54;2254000;79;21031;-60
2022/04/03 02:04:38;;;;;;;24.63;6.30;;;;;;;-2.39;100.00;98222.56;2240833;79;21036;-60
2022/04/03 02:07:41;;;;;;;21.30;6.17;;;;;;;-2.34;100.00;98218.20;2221183;79;21499;-60
2022/04/03 02:10:42;;;;;;;23.57;6.03;;;;;;;-2.32;100.00;98220.29;2243442;79;21001;-60
2022/04/03 02:13:44;;;;;;;20.02;6.00;;;;;;;-2.36;100.00;98226.80;2237972;79;21025;-60
2022/04/03 02:16:45;;;;;;;22.93;6.50;;;;;;;-2.36;100.00;98229.38;2246505;79;21447;-60
2022/04/03 02:19:47;;;;;;;23.05;5.70;;;;;;;-2.33;100.00;98228.89;2226924;79;21032;-60
2022/04/03 02:22:48;;;;;;;20.35;5.58;;;;;;;-2.28;100.00;98231.38;2242001;78;21066;-60
2022/04/03 02:25:52;;;;;;;22.32;6.05;;;;;;;-2.30;100.00;98239.11;2239263;79;21023;-61
2022/04/03 02:28:53;;;;;;;23.20;5.78;;;;;;;-2.33;100.00;98240.87;2210345;79;21001;-59
2022/04/03 02:31:54;;;;;;;21.60;5.57;;;;;;;-2.38;100.00;98245.27;2241270;79;21486;-60
2022/04/03 02:34:56;;;;;;;22.97;5.93;;;;;;;-2.39;100.00;98244.40;2232172;79;21048;-59
2022/04/03 02:37:57;;;;;;;24.85;6.42;;;;;;;-2.51;100.00;98244.63;2237253;79;20984;-60
2022/04/03 02:40:59;;;;;;;22.25;5.72;;;;;;;-2.56;100.00;98246.42;2230515;79;21012;-60
2022/04/03 02:44:00;;;;;;;27.50;5.95;;;;;;;-2.58;100.00;98252.03;2243041;79;20977;-60
2022/04/03 02:47:02;;;;;;;19.92;5.50;;;;;;;-2.61;100.00;98258.91;2245493;78;21012;-62
2022/04/03 02:50:04;;;;;;;20.00;5.33;;;;;;;-2.59;100.00;98258.88;2238015;79;21015;-60
2022/04/03 02:53:06;;;;;;;20.85;5.20;;;;;;;-2.62;100.00;98258.48;2240494;78;21510;-60
2022/04/03 02:56:08;;;;;;;27.82;5.50;;;;;;;-2.62;100.00;98267.47;2246341;79;20969;-60
2022/04/03 02:59:09;;;;;;;25.50;6.20;;;;;;;-2.63;100.00;98262.36;2243200;79;21467;-60
2022/04/03 03:02:11;;;;;;;23.25;6.08;;;;;;;-2.61;100.00;98265.77;2238344;78;20988;-60
2022/04/03 03:05:14;;;;;;;21.80;5.43;;;;;;;-2.66;100.00;98268.84;2239946;79;21507;-60
2022/04/03 03:08:16;;;;;;;20.25;5.42;;;;;;;-2.66;100.00;98265.85;2246584;79;21004;-60
2022/04/03 03:11:18;;;;;;;21.52;5.58;;;;;;;-2.70;100.00;98269.75;2229418;78;21011;-60
2022/04/03 03:14:19;;;;;;;22.58;5.42;;;;;;;-2.70;100.00;98278.33;2241316;79;21455;-60
2022/04/03 03:17:22;;;;;;;25.60;6.17;;;;;;;-2.76;100.00;98278.84;2244669;79;21063;-60
2022/04/03 03:20:23;;;;;;;20.27;5.78;;;;;;;-2.80;100.00;98275.05;2238627;79;21017;-60
2022/04/03 03:23:25;;;;;;;25.70;6.12;;;;;;;-2.86;100.00;98284.56;2242056;79;21048;-60
2022/04/03 03:26:27;;;;;;;22.77;5.58;;;;;;;-2.82;100.00;98281.91;2242567;79;21593;-60
2022/04/03 03:29:28;;;;;;;22.17;5.40;;;;;;;-2.88;100.00;98283.75;2240135;79;20984;-60
2022/04/03 03:32:30;;;;;;;23.35;6.05;;;;;;;-2.93;100.00;98287.67;2241933;79;21133;-60
2022/04/03 03:35:31;;;;;;;20.43;5.50;;;;;;;-3.00;100.00;98290.76;2246116;79;21547;-60
2022/04/03 03:38:33;;;;;;;19.10;4.92;;;;;;;-2.97;100.00;98297.12;2233409;79;21027;-60
2022/04/03 03:41:34;;;;;;;23.47;5.72;;;;;;;-2.99;100.00;98298.01;2233565;79;21459;-60
2022/04/03 03:44:36;;;;;;;20.35;5.28;;;;;;;-3.03;100.00;98299.79;2240943;79;20981;-60
2022/04/03 03:47:37;;;;;;;22.95;5.87;;;;;;;-3.08;100.00;98295.59;2235546;79;21581;-60
2022/04/03 03:50:39;;;;;;;24.77;5.95;;;;;;;-3.11;100.00;98291.34;2242111;79;20993;-60
2022/04/03 03:53:41;;;;;;;24.67;5.80;;;;;;;-3.06;100.00;98301.13;2250349;79;21044;-60
2022/04/03 03:56:42;;;;;;;20.37;5.35;;;;;;;-3.08;100.00;98309.25;2240327;79;21060;-60
2022/04/03 03:59:44;;;;;;;27.13;5.90;;;;;;;-3.03;100.00;98313.03;2247707;78;21077;-60
2022/04/03 04:02:45;;;;;;;23.38;6.12;;;;;;;-3.04;100.00;98319.06;2234074;79;21032;-60
2022/04/03 04:05:47;;;;;;;23.05;6.20;;;;;;;-3.13;100.00;98317.47;2240778;79;21124;-60
2022/04/03 04:08:48;;;;;;;22.57;6.70;;;;;;;-3.17;100.00;98326.91;2238795;79;21528;-60
2022/04/03 04:11:50;;;;;;;21.37;5.35;;;;;;;-3.12;100.00;98323.00;2240808;79;21040;-60
2022/04/03 04:14:52;;;;;;;18.17;5.17;;;;;;;-3.28;100.00;98324.92;2239457;78;20996;-60
2022/04/03 04:17:54;;;;;;;20.75;6.12;;;;;;;-3.28;100.00;98326.66;2247420;79;21099;-60
2022/04/03 04:20:57;;;;;;;19.90;5.37;;;;;;;-3.24;100.00;98330.43;2228130;79;21072;-60
2022/04/03 04:23:58;;;;;;;;;;;;;;;-3.31;100.00;98335.23;2239167;79;21575;-60
2022/04/03 04:27:00;;;;;;;26.23;6.25;;;;;;;-3.35;100.00;98335.72;2240123;79;20102;-60
2022/04/03 04:30:02;;;;;;;21.50;5.50;;;;;;;-3.34;100.00;98342.97;2241151;79;21511;-60
2022/04/03 04:33:04;;;;;;;20.62;5.12;;;;;;;-3.29;100.00;98348.03;2237146;79;21678;-60
2022/04/03 04:36:07;;;;;;;21.27;5.47;;;;;;;-2.42;100.00;98346.37;2236975;79;21108;-60
2022/04/03 04:39:08;;;;;;;20.68;5.45;;;;;;;-2.41;100.00;98351.48;2245012;79;21040;-60
2022/04/03 04:42:10;;;;;;;23.95;5.78;;;;;;;-2.23;100.00;98352.04;2240547;79;20957;-60
2022/04/03 04:45:11;;;;;;;20.88;5.42;;;;;;;-2.21;100.00;98360.14;2243957;79;21079;-60
2022/04/03 04:48:13;;;;;;;21.95;5.45;;;;;;;-2.15;100.00;98355.34;2277252;78;21041;-61
2022/04/03 04:51:14;;;;;;;22.10;5.92;;;;;;;-2.06;100.00;98358.18;2271576;78;21071;-59
2022/04/03 04:54:16;;;;;;;20.30;5.28;;;;;;;-1.97;100.00;98365.30;2275110;78;21546;-60
2022/04/03 04:57:17;;;;;;;21.02;5.42;;;;;;;-1.81;100.00;98356.87;2283101;77;20996;-60
2022/04/03 05:00:20;;;;;;;22.10;5.45;;;;;;;-1.71;100.00;98370.41;2281174;78;21463;-60
2022/04/03 05:03:21;;;;;;;20.97;5.17;;;;;;;-1.50;100.00;98368.30;2270977;78;21018;-60
2022/04/03 05:06:26;;;;;;;23.12;5.22;;;;;;;-1.40;100.00;98370.64;2273809;78;21071;-60
2022/04/03 05:09:26;;;;;;;18.90;5.22;;;;;;;-1.32;100.00;98380.80;2259591;77;21040;-61
2022/04/03 05:12:28;;;;;;;19.85;5.42;;;;;;;-1.36;100.00;98383.02;2277922;77;21443;-60
2022/04/03 05:15:30;;;;;;;20.88;5.10;;;;;;;-1.30;100.00;98388.48;2285542;77;21041;-59
2022/04/03 05:18:32;;;;;;;22.15;5.50;;;;;;;-1.18;100.00;98395.10;2274263;78;21597;-60
2022/04/03 05:21:33;;;;;;;18.40;5.60;;;;;;;-1.02;100.00;98392.63;2270241;78;21009;-60
2022/04/03 05:24:35;;;;;;;18.87;5.12;;;;;;;-0.77;100.00;98401.12;2269051;77;21510;-60
2022/04/03 05:27:36;;;;;;;20.32;5.22;;;;;;;-0.56;100.00;98400.64;2282595;77;20957;-59
2022/04/03 05:30:37;;;;;;;19.67;5.08;;;;;;;-0.38;100.00;98410.11;2272706;78;21087;-60
2022/04/03 05:33:39;;;;;;;18.50;5.58;;;;;;;-0.16;100.00;98407.85;2268278;77;21142;-59
2022/04/03 05:36:40;;;;;;;19.62;5.42;;;;;;;0.03;100.00;98412.56;2267002;78;20980;-60
2022/04/03 05:39:42;;;;;;;17.95;5.20;;;;;;;0.15;100.00;98426.45;2274813;77;20981;-61
2022/04/03 05:42:44;;;;;;;22.20;5.95;;;;;;;0.38;100.00;98425.02;2269970;78;21497;-60
2022/04/03 05:45:45;;;;;;;19.40;5.40;;;;;;;0.59;100.00;98425.75;2271824;77;20989;-60
2022/04/03 05:48:47;;;;;;;20.23;5.28;;;;;;;0.74;100.00;98423.18;2278093;77;21439;-60
2022/04/03 05:51:48;;;;;;;22.85;5.47;;;;;;;0.80;100.00;98436.36;2284387;77;21535;-60
2022/04/03 05:54:50;;;;;;;20.82;5.72;;;;;;;0.90;100.00;98429.22;2277973;78;21025;-60
2022/04/03 05:57:52;;;;;;;21.23;5.55;;;;;;;1.10;100.00;98448.86;2281450;77;21484;-60
2022/04/03 06:00:54;;;;;;;20.17;5.83;;;;;;;1.39;100.00;98435.53;2283951;77;21051;-60
2022/04/03 06:03:55;;;;;;;19.37;5.72;;;;;;;1.65;100.00;98433.89;2281564;78;20973;-60
2022/04/03 06:06:57;;;;;;;21.20;5.72;;;;;;;1.89;100.00;98451.68;2283854;77;21063;-60
2022/04/03 06:09:59;;;;;;;21.10;5.78;;;;;;;1.78;100.00;98444.70;2278213;78;21616;-60
2022/04/03 06:13:00;;;;;;;21.93;5.72;;;;;;;1.96;100.00;98441.53;2278585;78;21090;-60
2022/04/03 06:16:02;;;;;;;22.65;5.70;;;;;;;2.62;100.00;98444.96;2280692;77;21008;-60
2022/04/03 06:19:04;;;;;;;20.92;5.50;;;;;;;2.71;100.00;98451.56;2280981;77;20977;-61
2022/04/03 06:22:05;;;;;;;22.90;6.57;;;;;;;2.78;100.00;98461.64;2242503;79;21068;-60
2022/04/03 06:25:07;;;;;;;19.57;5.57;;;;;;;2.76;100.00;98444.03;2243038;79;21056;-60
2022/04/03 06:28:09;;;;;;;20.55;5.72;;;;;;;2.93;100.00;98456.81;2222527;79;21458;-61
2022/04/03 06:31:11;;;;;;;;;;;;;;;2.88;100.00;98435.43;2244311;79;21039;-60
2022/04/03 06:34:12;;;;;;;20.90;6.22;;;;;;;3.12;100.00;98467.39;2244265;79;20103;-60
2022/04/03 06:37:14;;;;;;;22.87;6.00;;;;;;;3.28;100.00;98472.39;2227341;79;20996;-60
2022/04/03 06:40:16;;;;;;;20.10;6.28;;;;;;;3.23;100.00;98478.21;2245300;79;21035;-60
2022/04/03 06:43:18;;;;;;;20.45;5.83;;;;;;;3.49;100.00;98467.29;2237432;79;21479;-60
2022/04/03 06:46:20;;;;;;;23.42;6.45;;;;;;;3.75;100.00;98477.13;2246252;79;20973;-61
2022/04/03 06:49:21;;;;;;;20.05;6.03;;;;;;;3.75;100.00;98477.13;2242387;79;21008;-61
2022/04/03 06:52:23;;;;;;;21.50;5.97;;;;;;;3.76;100.00;98491.80;2241409;78;21464;-60
2022/04/03 06:55:25;;;;;;;21.80;6.85;;;;;;;3.69;100.00;98487.75;2242683;78;20976;-62
2022/04/03 06:58:27;;;;;;;21.13;7.00;;;;;;;3.92;100.00;98487.72;2242766;78;21048;-61
2022/04/03 07:01:28;;;;;;;20.90;6.80;;;;;;;4.17;100.00;98489.33;2245251;78;21684;-60
2022/04/03 07:04:30;;;;;;;21.47;6.57;;;;;;;4.52;100.00;98496.12;2284321;77;20988;-61
2022/04/03 07:07:32;;;;;;;22.15;6.97;;;;;;;4.74;100.00;98497.38;2284004;77;20985;-61
2022/04/03 07:10:34;;;;;;;21.50;6.62;;;;;;;4.95;100.00;98496.89;2286567;77;21070;-61
2022/04/03 07:13:36;;;;;;;19.50;6.05;;;;;;;4.90;98.64;98507.09;2282102;78;20958;-61
2022/04/03 07:16:37;;;;;;;21.30;6.83;;;;;;;4.91;99.82;98510.93;2277444;77;21643;-61
2022/04/03 07:19:38;;;;;;;22.45;6.17;;;;;;;5.06;97.93;98505.54;2284075;77;20984;-61
2022/04/03 07:22:40;;;;;;;23.60;6.45;;;;;;;5.06;99.44;98509.88;2283561;77;20981;-61
2022/04/03 07:25:42;;;;;;;20.45;6.60;;;;;;;4.91;92.65;98520.49;2279600;77;21052;-60
2022/04/03 07:28:44;;;;;;;20.33;6.37;;;;;;;5.33;92.76;98532.09;2286571;77;21298;-61
2022/04/03 07:31:45;;;;;;;21.40;6.40;;;;;;;5.22;91.31;98522.61;2287267;77;21004;-61
2022/04/03 07:34:47;;;;;;;22.23;5.93;;;;;;;5.60;89.43;98530.44;2285673;77;20993;-61
2022/04/03 07:37:48;;;;;;;20.75;6.78;;;;;;;5.85;90.19;98528.05;2280805;77;21510;-61
2022/04/03 07:40:50;;;;;;;21.53;6.77;;;;;;;6.15;91.62;98519.71;2282964;77;20989;-61
2022/04/03 07:43:52;;;;;;;23.37;7.07;;;;;;;6.47;89.25;98529.89;2287823;77;21459;-60
2022/04/03 07:46:53;;;;;;;21.80;6.33;;;;;;;6.52;84.63;98539.64;2286935;77;20973;-61
2022/04/03 07:49:54;;;;;;;21.02;6.50;;;;;;;6.44;84.31;98531.34;2284948;77;21526;-61
2022/04/03 07:52:56;;;;;;;22.07;6.30;;;;;;;6.37;82.86;98540.38;2285943;77;21024;-61
2022/04/03 07:55:58;;;;;;;21.60;6.63;;;;;;;6.27;81.80;98539.14;2279754;77;20970;-61
2022/04/03 07:58:59;;;;;;;21.40;6.33;;;;;;;6.22;81.66;98547.15;2282904;77;21593;-61
2022/04/03 08:02:01;;;;;;;23.00;7.00;;;;;;;6.11;79.25;98541.16;2285665;77;21048;-61
2022/04/03 08:05:02;;;;;;;22.30;6.70;;;;;;;6.21;83.36;98545.48;2284986;77;21459;-61
2022/04/03 08:08:04;;;;;;;22.55;6.42;;;;;;;6.69;80.58;98550.52;2282773;77;20981;-61
2022/04/03 08:11:05;;;;;;;20.48;6.78;;;;;;;6.90;79.72;98552.52;2287961;77;21045;-61
2022/04/03 08:14:07;;;;;;;20.57;5.90;;;;;;;7.36;78.95;98553.23;2284330;77;21055;-60
2022/04/03 08:17:09;;;;;;;21.02;7.00;;;;;;;7.49;74.73;98552.13;2283507;77;21498;-60
2022/04/03 08:20:11;;;;;;;18.90;6.37;;;;;;;7.47;76.71;98555.30;2282649;77;21040;-60
2022/04/03 08:23:12;;;;;;;18.42;6.30;;;;;;;7.52;75.49;98571.54;2284780;77;21072;-60
2022/04/03 08:26:14;;;;;;;22.80;6.63;;;;;;;7.71;75.96;98571.88;2284732;77;21055;-62
2022/04/03 08:29:16;;;;;;;19.27;6.27;;;;;;;7.72;72.71;98574.41;2284785;77;20957;-62
2022/04/03 08:32:17;;;;;;;17.65;5.28;;;;;;;7.71;69.47;98574.02;2283710;77;21487;-61
2022/04/03 08:35:19;;;;;;;18.67;5.45;;;;;;;7.75;72.21;98569.48;2246854;78;21546;-61
2022/04/03 08:38:21;;;;;;;16.35;4.92;;;;;;;7.72;64.41;98566.56;2233458;79;21019;-61
2022/04/03 08:41:23;;;;;;;16.55;5.40;;;;;;;7.52;57.16;98581.15;2238816;79;21473;-61
2022/04/03 08:44:24;;;;;;;18.15;5.58;;;;;;;7.24;60.24;98586.03;2242819;79;21003;-61
2022/04/03 08:47:26;;;;;;;19.53;5.50;;;;;;;7.40;59.13;98588.69;2237883;79;21543;-61
2022/04/03 08:50:27;;;;;;;17.27;5.23;;;;;;;7.77;61.70;98581.54;2248379;79;21029;-61
2022/04/03 08:53:29;;;;;;;15.00;4.80;;;;;;;8.22;58.50;98601.33;2243215;79;21826;-61
2022/04/03 08:56:31;;;;;;;15.90;5.20;;;;;;;7.98;55.39;98597.80;2238439;79;21000;-61
2022/04/03 08:59:33;;;;;;;16.77;5.15;;;;;;;8.03;58.03;98604.55;2234073;79;21648;-61
2022/04/03 09:02:34;;;;;;;16.07;4.97;;;;;;;7.94;57.09;98598.05;2240369;79;21078;-61
2022/04/03 09:05:36;;;;;;;17.87;4.97;;;;;;;8.05;57.74;98601.41;2244631;79;21637;-61
2022/04/03 09:08:38;;;;;;;18.50;5.22;;;;;;;8.55;58.35;98603.03;2238946;79;21040;-60
2022/04/03 09:11:39;;;;;;;16.42;5.03;;;;;;;8.84;54.48;98598.75;2232762;79;21004;-61
2022/04/03 09:14:41;;;;;;;17.63;4.93;;;;;;;9.29;55.56;98612.33;2240670;79;21108;-61
2022/04/03 09:17:44;;;;;;;17.83;5.07;;;;;;;9.17;46.06;98600.81;2235079;79;21096;-61
2022/04/03 09:20:45;;;;;;;16.87;4.80;;;;;;;8.78;45.48;98607.43;2234825;79;20984;-61
2022/04/03 09:23:47;;;;;;;14.95;4.80;;;;;;;8.42;44.67;98611.98;2242337;79;21503;-61
2022/04/03 09:26:48;;;;;;;15.65;4.58;;;;;;;8.61;46.16;98606.59;2235635;79;21031;-61
2022/04/03 09:29:50;;;;;;;17.57;4.77;;;;;;;8.98;43.74;98614.96;2232883;79;20985;-61
2022/04/03 09:32:51;;;;;;;14.03;4.20;;;;;;;9.35;42.75;98608.88;2242591;79;21016;-61
2022/04/03 09:35:53;;;;;;;14.03;4.03;;;;;;;9.44;40.71;98622.34;2235997;79;21042;-61
2022/04/03 09:38:55;;;;;;;13.25;3.80;;;;;;;8.12;37.80;98624.97;2247055;79;21008;-61
2022/04/03 09:41:56;;;;;;;12.27;3.90;;;;;;;8.50;37.36;98618.11;2239819;79;20996;-61
2022/04/03 09:44:58;;;;;;;12.70;4.15;;;;;;;8.59;39.65;98629.83;2233457;79;21055;-61
2022/04/03 09:47:59;;;;;;;13.23;4.07;;;;;;;8.44;36.51;98628.89;2241114;79;21018;-61
2022/04/03 09:51:02;;;;;;;14.27;4.50;;;;;;;8.62;39.05;98632.27;2235912;79;21483;-61
2022/04/03 09:54:04;;;;;;;13.40;4.08;;;;;;;8.85;39.00;98630.99;2245504;79;21549;-61
2022/04/03 09:57:06;;;;;;;14.58;4.30;;;;;;;9.28;39.48;98631.13;2246575;79;21028;-61
2022/04/03 10:00:07;;;;;;;14.20;4.55;;;;;;;9.46;39.52;98635.72;2241672;79;21001;-61
2022/04/03 10:03:09;;;;;;;14.40;4.37;;;;;;;9.85;36.31;98629.48;2242537;79;21032;-61
2022/04/03 10:06:10;;;;;;;16.00;4.70;;;;;;;9.77;38.45;98636.95;2230585;79;21025;-61
2022/04/03 10:09:12;;;;;;;16.17;5.00;;;;;;;9.60;38.71;98637.52;2240716;79;21495;-61
2022/04/03 10:12:13;;;;;;;16.12;4.35;;;;;;;9.60;38.63;98636.22;2234786;79;21059;-61
2022/04/03 10:15:15;;;;;;;15.40;4.40;;;;;;;9.50;39.01;98641.16;2235349;78;21518;-62
2022/04/03 10:18:16;;;;;;;14.50;3.90;;;;;;;9.68;39.21;98640.98;2244651;79;20953;-61
2022/04/03 10:21:18;;;;;;;18.27;4.40;;;;;;;9.40;38.14;98655.72;2237923;79;21435;-61
2022/04/03 10:24:19;;;;;;;14.95;4.22;;;;;;;9.07;36.80;98657.23;2238224;79;21016;-61
2022/04/03 10:27:22;;;;;;;15.80;4.50;;;;;;;8.82;38.47;98659.91;2244091;79;21059;-61
2022/04/03 10:30:24;;;;;;;15.43;4.47;;;;;;;8.61;38.97;98656.27;2238849;79;21071;-61
2022/04/03 10:33:25;;;;;;;15.18;4.33;;;;;;;8.33;38.29;98660.83;2243721;79;22899;-61
2022/04/03 10:36:27;;;;;;;16.60;4.50;;;;;;;7.65;39.08;98667.49;2242357;79;20974;-60
2022/04/03 10:39:29;;;;;;;16.37;4.47;;;;;;;8.31;37.29;98659.60;2239335;79;21542;-61
2022/04/03 10:42:30;;;;;;;14.00;4.40;;;;;;;9.21;37.45;98657.27;2228669;79;21044;-61
2022/04/03 10:45:32;;;;;;;15.08;4.78;;;;;;;9.29;36.70;98664.67;2240662;78;21123;-61
2022/04/03 10:48:34;;;;;;;14.37;4.33;;;;;;;8.81;36.78;98656.94;2243849;79;21429;-61
2022/04/03 10:51:35;;;;;;;16.40;4.47;;;;;;;8.92;38.41;98656.31;2238336;79;21071;-61
2022/04/03 10:54:37;;;;;;;17.33;5.33;;;;;;;9.62;37.48;98655.28;2237625;79;21016;-61
2022/04/03 10:57:39;;;;;;;15.65;4.87;;;;;;;9.99;35.71;98655.68;2240479;79;21308;-61
2022/04/03 11:00:40;;;;;;;16.27;5.03;;;;;;;10.06;36.07;98655.67;2240159;78;21024;-62
2022/04/03 11:03:42;;;;;;;16.07;5.37;;;;;;;9.33;34.62;98655.23;2242902;79;20957;-61
2022/04/03 11:06:45;;;;;;;16.17;5.10;;;;;;;8.75;37.58;98666.41;2242806;79;21598;-61
2022/04/03 11:09:46;;;;;;;16.60;4.95;;;;;;;9.17;36.32;98657.07;2241277;79;21561;-61
2022/04/03 11:12:48;;;;;;;18.98;5.10;;;;;;;8.17;38.66;98668.66;2239251;79;21041;-61
2022/04/03 11:15:50;;;;;;;16.67;4.83;;;;;;;7.74;39.46;98680.92;2245340;79;21514;-61
2022/04/03 11:18:52;;;;;;;16.40;4.95;;;;;;;7.34;40.34;98676.42;2237774;79;21079;-61
2022/04/03 11:21:54;;;;;;;17.77;5.28;;;;;;;6.73;42.11;98685.46;2274986;78;21552;-61
2022/04/03 11:24:55;;;;;;;19.85;5.75;;;;;;;7.53;41.25;98687.21;2240474;79;20996;-61
2022/04/03 11:27:57;;;;;;;19.02;5.65;;;;;;;6.56;40.83;98695.38;2244445;79;21009;-60
2022/04/03 11:30:58;;;;;;;19.02;5.80;;;;;;;6.05;42.60;98705.50;2245767;79;21025;-60
2022/04/03 11:34:00;;;;;;;16.90;5.30;;;;;;;5.85;43.53;98708.95;2243913;79;21074;-61
2022/04/03 11:37:01;;;;;;;15.70;5.08;;;;;;;6.01;41.97;98696.13;2242890;79;20980;-60
2022/04/03 11:40:03;;;;;;;17.77;5.00;;;;;;;5.75;43.16;98703.30;2242654;79;21027;-61
2022/04/03 11:43:04;;;;;;;16.45;5.08;;;;;;;5.67;43.03;98691.89;2242587;79;21447;-60
2022/04/03 11:46:07;;;;;;;16.90;4.90;;;;;;;6.42;42.72;98696.00;2248004;79;21000;-61
2022/04/03 11:49:08;;;;;;;18.75;4.97;;;;;;;7.18;40.40;98693.27;2244346;79;21001;-61
2022/04/03 11:52:10;;;;;;;15.88;4.90;;;;;;;8.09;39.15;98687.84;2225737;79;20983;-61
2022/04/03 11:55:11;;;;;;;17.62;4.78;;;;;;;8.70;37.58;98693.30;2237570;79;20968;-61
2022/04/03 11:58:13;;;;;;;18.77;4.85;;;;;;;7.86;38.83;98686.40;2239852;79;21029;-61
2022/04/03 12:01:15;;;;;;;14.38;4.47;;;;;;;7.45;38.38;98700.66;2237695;79;21037;-60
2022/04/03 12:04:16;;;;;;;17.00;4.53;;;;;;;7.22;38.72;98691.37;2241853;79;21111;-61
2022/04/03 12:07:18;;;;;;;15.23;4.25;;;;;;;6.88;38.54;98708.20;2239784;79;21529;-60
2022/04/03 12:10:19;;;;;;;14.47;4.33;;;;;;;7.04;39.13;98693.10;2242078;79;21011;-61
2022/04/03 12:13:21;;;;;;;14.70;4.15;;;;;;;7.44;39.07;98690.69;2234010;79;21545;-61
2022/04/03 12:16:22;;;;;;;17.57;4.60;;;;;;;7.85;36.26;98690.79;2244675;79;21000;-59
2022/04/03 12:19:24;;;;;;;14.85;4.37;;;;;;;8.11;36.16;98691.19;2243924;79;21035;-60
2022/04/03 12:22:29;;;;;;;14.70;4.08;;;;;;;7.45;35.73;98687.14;2236344;79;21030;-61
2022/04/03 12:25:30;;;;;;;14.23;4.20;;;;;;;7.18;37.26;98697.18;2226569;79;21042;-61
2022/04/03 12:28:31;;;;;;;15.93;3.95;;;;;;;7.48;37.65;98692.67;2241181;79;21055;-60
2022/04/03 12:31:33;;;;;;;11.63;3.70;;;;;;;6.85;37.92;98698.36;2243596;79;21499;-60
2022/04/03 12:34:34;;;;;;;15.72;3.87;;;;;;;6.89;38.20;98694.23;2242734;78;21012;-61
2022/04/03 12:37:36;;;;;;;14.20;4.10;;;;;;;7.65;36.86;98694.42;2243476;79;21503;-60
2022/04/03 12:40:38;;;;;;;15.90;4.08;;;;;;;7.75;36.10;98709.16;2235307;79;21079;-61
2022/04/03 12:43:39;;;;;;;15.65;3.75;;;;;;;6.95;38.43;98697.00;2232172;79;21570;-61
2022/04/03 12:46:41;;;;;;;13.65;3.98;;;;;;;6.40;39.43;98690.03;2230143;79;20995;-61
2022/04/03 12:49:43;;;;;;;15.28;4.40;;;;;;;6.79;38.20;98692.98;2245157;79;21492;-61
2022/04/03 12:52:44;;;;;;;14.93;4.08;;;;;;;7.54;37.52;98688.91;2245400;79;20989;-60
2022/04/03 12:55:46;;;;;;;14.35;4.05;;;;;;;7.81;37.00;98681.42;2244576;79;21562;-61
2022/04/03 12:58:50;;;;;;;15.30;4.00;;;;;;;7.82;36.67;98694.04;2234220;79;21051;-61
2022/04/03 13:01:53;;;;;;;13.43;3.87;;;;;;;8.47;37.18;98683.16;2212597;79;21033;-61
2022/04/03 13:04:54;;;;;;;14.38;3.92;;;;;;;9.85;36.59;98681.87;2244405;79;21067;-61
2022/04/03 13:07:56;;;;;;;13.03;4.45;;;;;;;9.94;35.15;98690.51;2235051;79;21538;-61
2022/04/03 13:10:58;;;;;;;13.48;4.08;;;;;;;9.27;35.71;98669.16;2234228;79;21044;-61
2022/04/03 13:14:02;;;;;;;14.87;4.00;;;;;;;8.97;35.45;98685.69;2245259;79;21040;-61
2022/04/03 13:17:04;;;;;;;15.00;4.20;;;;;;;8.62;36.01;98680.19;2234833;78;21059;-61
2022/04/03 13:20:06;;;;;;;16.50;4.20;;;;;;;7.62;36.57;98681.06;2239425;79;20990;-61
2022/04/03 13:23:07;;;;;;;16.10;4.12;;;;;;;7.23;36.74;98683.94;2238933;79;21511;-61
2022/04/03 13:26:09;;;;;;;14.13;4.15;;;;;;;7.03;37.43;98681.00;2240380;79;21072;-61
2022/04/03 13:29:12;;;;;;;15.65;4.20;;;;;;;6.92;39.08;98676.30;2236406;79;21613;-60
2022/04/03 13:32:13;;;;;;;13.78;3.90;;;;;;;7.07;38.87;98674.72;2237050;79;20983;-61
2022/04/03 13:35:15;;;;;;;13.48;4.22;;;;;;;7.03;37.60;98686.22;2237657;79;21558;-60
2022/04/03 13:38:16;;;;;;;14.43;4.30;;;;;;;6.80;37.64;98683.42;2243377;79;21072;-61
2022/04/03 13:41:19;;;;;;;12.45;4.00;;;;;;;7.08;38.20;98678.99;2245529;79;21486;-61
2022/04/03 13:44:21;;;;;;;14.03;3.90;;;;;;;7.68;37.82;98677.77;2232241;79;21035;-61
2022/04/03 13:47:22;;;;;;;15.43;4.27;;;;;;;8.37;36.59;98667.58;2248273;79;21098;-62
2022/04/03 13:50:24;;;;;;;16.37;4.37;;;;;;;8.34;36.22;98672.97;2234820;79;21019;-61
2022/04/03 13:53:25;;;;;;;14.38;3.90;;;;;;;8.77;36.77;98667.19;2238991;79;21482;-61
2022/04/03 13:56:26;;;;;;;14.68;4.05;;;;;;;8.67;37.19;98666.38;2233593;79;20957;-60
2022/04/03 13:59:28;;;;;;;12.80;3.83;;;;;;;8.16;36.00;98673.52;2243903;79;21570;-61
2022/04/03 14:02:31;;;;;;;14.58;4.10;;;;;;;7.45;36.44;98675.86;2241392;79;20997;-61
2022/04/03 14:05:32;;;;;;;;;;;;;;;6.87;36.97;98673.91;2240031;79;21039;-61